Sun Universe — 3FOQ4 — position and weather

sailwx.info

Track history (hours):
 
Tides and Currents Weather Stations Pressure Air Temp Water Temp Dewpoint Dewpoint Depression Visibility Wind Speed Wind Dir Waves Ship Positions

Sun Universe

Last reported at 2015-Mar-24 14:15 UTC. Time now 2015-Mar-31 15:34 UTC.
Position N 29°35' E 122°48'.

Length 116 m; draft 5.1 m.

Type: Cargo ship. MMSI: 371647000.

Date/timePositionNaut miles runAvg speedWind from/ knotsBaromVisibWave heightAir tempDewpointWater temp
2015-Mar-24 14:15N 29°35' E 122°48'2011.8
2015-Mar-24 12:33N 29°21' E 122°31'24011.3
2015-Mar-23 15:20N 26°05' E 119°53'1011.4
2015-Mar-23 14:28N 25°55' E 119°52'3611.1
2015-Mar-23 11:10N 25°19' E 119°56'2012.1
2015-Mar-23 09:32N 25°08' E 119°37'1212.0
2015-Mar-23 08:33N 25°02' E 119°26'1111.2
2015-Mar-23 07:33N 24°56' E 119°16'1010.0
2015-Mar-23 06:33N 24°49' E 119°08'9 8.8
2015-Mar-23 05:33N 24°43' E 119°00'8 7.9
2015-Mar-23 04:33N 24°38' E 118°54'9 8.2
2015-Mar-23 03:31N 24°33' E 118°47'9 9.3
2015-Mar-23 02:33N 24°27' E 118°39'1111.2
2015-Mar-23 01:33N 24°19' E 118°30'1212.2
2015-Mar-23 00:33N 24°11' E 118°20'1312.7
2015-Mar-22 23:32N 24°02' E 118°10'1212.2
2015-Mar-22 22:33N 23°54' E 118°01'1111.0
2015-Mar-22 21:32N 23°46' E 117°52'1010.0
2015-Mar-22 20:31N 23°39' E 117°43'12 9.8
2015-Mar-22 19:15N 23°31' E 117°34'30 7.9
2015-Mar-22 15:32N 23°08' E 117°13'8 7.7
2015-Mar-22 14:33N 23°05' E 117°06'1010.3
2015-Mar-22 13:33N 22°59' E 116°56'1211.2
2015-Mar-22 12:26N 22°54' E 116°44'12611.3
2015-Mar-22 01:21N 22°10' E 114°37'1012.1
2015-Mar-22 00:34N 22°08' E 114°27'1110.6
2015-Mar-21 23:33N 22°08' E 114°15'6 3.0
2015-Mar-21 21:32N 22°10' E 114°09'0 0.0
2015-Mar-21 20:26N 22°10' E 114°09'0 0.0
2015-Mar-21 19:17N 22°10' E 114°09'0 0.0
2015-Mar-21 17:29N 22°10' E 114°09'1 1.0
2015-Mar-21 16:33N 22°10' E 114°09'1310.0
2015-Mar-21 15:13N 22°06' E 113°55'710.3
2015-Mar-21 14:33N 22°09' E 113°48'10 9.9
2015-Mar-21 13:33N 22°19' E 113°48'8 0.2
2015-Mar-20 02:28N 22°26' E 113°45'1213.2
2015-Mar-20 01:33N 22°14' E 113°48'9 8.0
2015-Mar-20 00:23N 22°05' E 113°51'1 0.9
2015-Mar-19 23:26N 22°05' E 113°52'0 0.1
2015-Mar-19 22:26N 22°05' E 113°52'0 0.1
2015-Mar-19 21:32N 22°05' E 113°52'0 0.1
2015-Mar-19 20:26N 22°05' E 113°52'0 0.1
2015-Mar-19 19:26N 22°05' E 113°52'0 0.0
2015-Mar-19 17:32N 22°05' E 113°52'0 0.0
2015-Mar-19 14:14N 22°05' E 113°52'0 0.0
2015-Mar-19 10:14N 22°05' E 113°52'0 0.0
2015-Mar-19 09:26N 22°05' E 113°52'0 0.0
2015-Mar-19 08:26N 22°05' E 113°52'0 0.0
2015-Mar-19 03:14N 22°05' E 113°52'0 0.0
2015-Mar-19 02:32N 22°05' E 113°52'0 0.1
2015-Mar-19 01:14N 22°05' E 113°52'2 2.0
2015-Mar-19 00:22N 22°04' E 113°51'2810.0
2015-Mar-18 21:33N 22°01' E 114°22'1412.4
2015-Mar-18 20:24N 22°06' E 114°36'12011.9
2015-Mar-18 10:16N 22°49' E 116°38'7713.1
2015-Mar-18 04:22N 23°33' E 117°47'1213.4
2015-Mar-18 03:27N 23°41' E 117°57'1313.5
2015-Mar-18 02:31N 23°50' E 118°07'1412.4
2015-Mar-18 01:25N 23°59' E 118°18'1611.9
2015-Mar-18 00:06N 24°09' E 118°31'1711.3
2015-Mar-17 22:33N 24°21' E 118°45'1511.1
2015-Mar-17 21:14N 24°31' E 118°57'710.8
2015-Mar-17 20:33N 24°36' E 119°03'  
Track history (hours):
 
Tides and Currents Weather Stations Pressure Air Temp Water Temp Dewpoint Dewpoint Depression Visibility Wind Speed Wind Dir Waves Ship Positions

Sun Universe

Last reported at 2015-Mar-24 14:15 UTC. Time now 2015-Mar-31 15:34 UTC.
Position N 29°35' E 122°48'.

Length 116 m; draft 5.1 m.

Type: Cargo ship. MMSI: 371647000.

Date/timePositionNaut miles runAvg speedWind from/ knotsBaromVisibWave heightAir tempDewpointWater temp
2015-Mar-24 14:15N 29°35' E 122°48'2011.8
2015-Mar-24 12:33N 29°21' E 122°31'24011.3
2015-Mar-23 15:20N 26°05' E 119°53'1011.4
2015-Mar-23 14:28N 25°55' E 119°52'3611.1
2015-Mar-23 11:10N 25°19' E 119°56'2012.1
2015-Mar-23 09:32N 25°08' E 119°37'1212.0
2015-Mar-23 08:33N 25°02' E 119°26'1111.2
2015-Mar-23 07:33N 24°56' E 119°16'1010.0
2015-Mar-23 06:33N 24°49' E 119°08'9 8.8
2015-Mar-23 05:33N 24°43' E 119°00'8 7.9
2015-Mar-23 04:33N 24°38' E 118°54'9 8.2
2015-Mar-23 03:31N 24°33' E 118°47'9 9.3
2015-Mar-23 02:33N 24°27' E 118°39'1111.2
2015-Mar-23 01:33N 24°19' E 118°30'1212.2
2015-Mar-23 00:33N 24°11' E 118°20'1312.7
2015-Mar-22 23:32N 24°02' E 118°10'1212.2
2015-Mar-22 22:33N 23°54' E 118°01'1111.0
2015-Mar-22 21:32N 23°46' E 117°52'1010.0
2015-Mar-22 20:31N 23°39' E 117°43'12 9.8
2015-Mar-22 19:15N 23°31' E 117°34'30 7.9
2015-Mar-22 15:32N 23°08' E 117°13'8 7.7
2015-Mar-22 14:33N 23°05' E 117°06'1010.3
2015-Mar-22 13:33N 22°59' E 116°56'1211.2
2015-Mar-22 12:26N 22°54' E 116°44'12611.3
2015-Mar-22 01:21N 22°10' E 114°37'1012.1
2015-Mar-22 00:34N 22°08' E 114°27'1110.6
2015-Mar-21 23:33N 22°08' E 114°15'6 3.0
2015-Mar-21 21:32N 22°10' E 114°09'0 0.0
2015-Mar-21 20:26N 22°10' E 114°09'0 0.0
2015-Mar-21 19:17N 22°10' E 114°09'0 0.0
2015-Mar-21 17:29N 22°10' E 114°09'1 1.0
2015-Mar-21 16:33N 22°10' E 114°09'1310.0
2015-Mar-21 15:13N 22°06' E 113°55'710.3
2015-Mar-21 14:33N 22°09' E 113°48'10 9.9
2015-Mar-21 13:33N 22°19' E 113°48'8 0.2
2015-Mar-20 02:28N 22°26' E 113°45'1213.2
2015-Mar-20 01:33N 22°14' E 113°48'9 8.0
2015-Mar-20 00:23N 22°05' E 113°51'1 0.9
2015-Mar-19 23:26N 22°05' E 113°52'0 0.1
2015-Mar-19 22:26N 22°05' E 113°52'0 0.1
2015-Mar-19 21:32N 22°05' E 113°52'0 0.1
2015-Mar-19 20:26N 22°05' E 113°52'0 0.1
2015-Mar-19 19:26N 22°05' E 113°52'0 0.0
2015-Mar-19 17:32N 22°05' E 113°52'0 0.0
2015-Mar-19 14:14N 22°05' E 113°52'0 0.0
2015-Mar-19 10:14N 22°05' E 113°52'0 0.0
2015-Mar-19 09:26N 22°05' E 113°52'0 0.0
2015-Mar-19 08:26N 22°05' E 113°52'0 0.0
2015-Mar-19 03:14N 22°05' E 113°52'0 0.0
2015-Mar-19 02:32N 22°05' E 113°52'0 0.1
2015-Mar-19 01:14N 22°05' E 113°52'2 2.0
2015-Mar-19 00:22N 22°04' E 113°51'2810.0
2015-Mar-18 21:33N 22°01' E 114°22'1412.4
2015-Mar-18 20:24N 22°06' E 114°36'12011.9
2015-Mar-18 10:16N 22°49' E 116°38'7713.1
2015-Mar-18 04:22N 23°33' E 117°47'1213.4
2015-Mar-18 03:27N 23°41' E 117°57'1313.5
2015-Mar-18 02:31N 23°50' E 118°07'1412.4
2015-Mar-18 01:25N 23°59' E 118°18'1611.9
2015-Mar-18 00:06N 24°09' E 118°31'1711.3
2015-Mar-17 22:33N 24°21' E 118°45'1511.1
2015-Mar-17 21:14N 24°31' E 118°57'710.8
2015-Mar-17 20:33N 24°36' E 119°03'  

Dump ship's entire track history